createdAt,value
2023-02-07T00:01:11.312Z,27.80
2023-02-07T00:03:37.461Z,27.70
2023-02-07T00:06:09.099Z,27.70
2023-02-07T00:08:36.149Z,27.80
2023-02-07T00:11:07.719Z,27.80
2023-02-07T00:13:34.472Z,27.80
2023-02-07T00:16:01.649Z,27.80
2023-02-07T00:18:27.781Z,27.80
2023-02-07T00:20:58.690Z,27.80
2023-02-07T00:23:24.824Z,27.80
2023-02-07T00:25:50.878Z,27.80
2023-02-07T00:28:16.978Z,27.80
2023-02-07T00:30:43.117Z,27.80
2023-02-07T00:33:09.296Z,27.80
2023-02-07T00:35:35.504Z,27.80
2023-02-07T00:38:01.700Z,27.80
2023-02-07T00:40:27.800Z,27.80
2023-02-07T00:42:53.863Z,27.80
2023-02-07T00:45:19.931Z,27.80
2023-02-07T00:47:45.981Z,27.80
2023-02-07T00:50:12.068Z,27.80
2023-02-07T00:52:38.119Z,27.80
2023-02-07T00:55:04.307Z,27.80
2023-02-07T00:57:30.356Z,27.80
2023-02-07T00:59:56.419Z,27.80
2023-02-07T01:02:22.612Z,27.80
2023-02-07T01:04:48.696Z,27.80
2023-02-07T01:07:14.779Z,27.80
2023-02-07T01:09:40.888Z,27.80
2023-02-07T01:12:07.019Z,27.80
2023-02-07T01:14:33.104Z,27.80
2023-02-07T01:16:59.256Z,27.80
2023-02-07T01:19:25.314Z,27.80
2023-02-07T01:21:51.364Z,27.80
2023-02-07T01:24:17.475Z,27.80
2023-02-07T01:26:43.597Z,27.80
2023-02-07T01:29:13.917Z,27.80
2023-02-07T01:31:41.602Z,27.80
2023-02-07T01:34:10.767Z,27.80
2023-02-07T01:36:36.846Z,27.80
2023-02-07T01:39:03.368Z,27.80
2023-02-07T01:41:29.516Z,27.80
2023-02-07T01:44:01.603Z,27.80
2023-02-07T01:46:29.412Z,27.90
2023-02-07T01:48:58.682Z,27.80
2023-02-07T01:51:25.670Z,27.80
2023-02-07T01:53:55.451Z,27.80
2023-02-07T01:56:31.247Z,27.80
2023-02-07T01:58:59.097Z,27.80
2023-02-07T02:01:25.666Z,27.80
2023-02-07T02:03:55.049Z,27.80
2023-02-07T02:06:24.657Z,27.80
2023-02-07T02:08:57.157Z,27.80
2023-02-07T02:11:36.277Z,27.80
2023-02-07T02:14:11.432Z,27.80
2023-02-07T02:16:46.060Z,27.80
2023-02-07T02:19:23.796Z,27.80
2023-02-07T02:22:04.834Z,27.80
2023-02-07T02:25:13.234Z,27.80
2023-02-07T02:27:59.564Z,27.80
2023-02-07T02:30:34.320Z,27.90
2023-02-07T02:33:12.368Z,27.80
2023-02-07T02:36:00.448Z,27.80
2023-02-07T02:39:00.685Z,27.80
2023-02-07T02:41:39.097Z,27.90
2023-02-07T02:44:34.105Z,27.80
2023-02-07T02:47:02.435Z,27.90
2023-02-07T02:49:31.362Z,27.80
2023-02-07T02:51:57.505Z,27.80
2023-02-07T02:54:35.251Z,27.80
2023-02-07T02:57:30.317Z,27.90
2023-02-07T03:00:34.056Z,27.80
2023-02-07T03:03:22.280Z,27.80
2023-02-07T03:06:33.092Z,27.90
2023-02-07T03:09:37.294Z,27.90
2023-02-07T03:12:39.856Z,27.90
2023-02-07T03:15:11.928Z,27.90
2023-02-07T03:17:43.692Z,27.90
2023-02-07T03:20:19.054Z,27.90
2023-02-07T03:22:48.734Z,27.80
2023-02-07T03:25:16.463Z,27.90
2023-02-07T03:27:44.393Z,28.40
2023-02-07T03:30:14.877Z,27.90
2023-02-07T03:32:44.598Z,27.90
2023-02-07T03:35:29.017Z,27.90
2023-02-07T03:37:58.546Z,27.90
2023-02-07T03:40:32.690Z,27.80
2023-02-07T03:43:26.159Z,27.80
2023-02-07T03:45:52.317Z,27.90
2023-02-07T03:48:18.856Z,27.90
2023-02-07T03:50:46.929Z,27.90
2023-02-07T03:53:13.067Z,27.90
2023-02-07T03:55:39.331Z,27.90
2023-02-07T03:58:06.775Z,27.90
2023-02-07T04:00:33.480Z,27.90
2023-02-07T04:02:59.711Z,27.80
2023-02-07T04:05:25.953Z,27.90
2023-02-07T04:07:52.633Z,27.90
2023-02-07T04:10:18.728Z,27.90
2023-02-07T04:12:45.139Z,27.90
2023-02-07T04:15:11.649Z,27.90
2023-02-07T04:17:38.176Z,28.00
2023-02-07T04:20:05.361Z,28.00
2023-02-07T04:22:31.426Z,28.00
2023-02-07T04:24:57.564Z,28.00
2023-02-07T04:27:23.924Z,28.00
2023-02-07T04:29:50.194Z,28.00
2023-02-07T04:32:16.617Z,28.00
2023-02-07T04:34:42.712Z,28.10
2023-02-07T04:37:08.857Z,28.00
2023-02-07T04:39:35.107Z,28.10
2023-02-07T04:42:01.194Z,28.00
2023-02-07T04:44:27.504Z,28.00
2023-02-07T04:46:53.573Z,28.00
2023-02-07T04:49:19.708Z,28.00
2023-02-07T04:51:45.760Z,28.10
2023-02-07T04:54:11.835Z,28.00
2023-02-07T04:56:37.883Z,28.00
2023-02-07T04:59:04.008Z,28.00
2023-02-07T05:01:30.334Z,28.00
2023-02-07T05:03:56.452Z,28.10
2023-02-07T05:06:22.538Z,28.10
2023-02-07T05:08:48.647Z,28.00
2023-02-07T05:11:14.840Z,28.10
2023-02-07T05:13:40.951Z,28.10
2023-02-07T05:16:07.339Z,28.10
2023-02-07T05:18:33.442Z,28.10
2023-02-07T05:20:59.657Z,28.10
2023-02-07T05:23:25.966Z,28.10
2023-02-07T05:25:52.116Z,28.10
2023-02-07T05:28:18.197Z,28.10
2023-02-07T05:30:44.414Z,28.20
2023-02-07T05:33:11.291Z,28.20
2023-02-07T05:35:40.238Z,28.20
2023-02-07T05:38:12.201Z,28.10
2023-02-07T05:40:39.949Z,28.20
2023-02-07T05:43:06.409Z,28.20
2023-02-07T05:45:33.380Z,28.20
2023-02-07T05:47:59.545Z,28.10
2023-02-07T05:50:26.037Z,28.10
2023-02-07T05:52:52.171Z,28.10
2023-02-07T05:55:18.650Z,28.10
2023-02-07T05:57:45.334Z,28.10
2023-02-07T06:00:15.247Z,28.10
2023-02-07T06:02:42.345Z,28.10
2023-02-07T06:05:10.757Z,28.30
2023-02-07T06:07:37.281Z,28.20
2023-02-07T06:10:07.205Z,28.00
2023-02-07T06:12:34.234Z,27.50
2023-02-07T06:15:00.660Z,27.50
2023-02-07T06:17:27.060Z,27.60
2023-02-07T06:19:53.732Z,27.70
2023-02-07T06:22:19.832Z,27.80
2023-02-07T06:24:45.900Z,28.00
2023-02-07T06:27:11.959Z,27.80
2023-02-07T06:29:38.016Z,27.70
2023-02-07T06:32:04.549Z,27.70
2023-02-07T06:34:30.643Z,27.70
2023-02-07T06:36:56.701Z,27.60
2023-02-07T06:39:22.912Z,27.60
2023-02-07T06:41:48.982Z,27.80
2023-02-07T06:44:15.183Z,27.80
2023-02-07T06:46:41.249Z,27.40
2023-02-07T06:49:07.332Z,28.20
2023-02-07T06:51:33.419Z,27.90
2023-02-07T06:54:00.877Z,27.90
2023-02-07T06:56:26.977Z,27.30
2023-02-07T06:58:53.162Z,26.80
2023-02-07T07:01:19.486Z,26.60
2023-02-07T07:03:46.647Z,26.60
2023-02-07T07:06:13.205Z,27.50
2023-02-07T07:08:39.545Z,27.60
2023-02-07T07:11:05.687Z,27.30
2023-02-07T07:13:31.756Z,26.90
2023-02-07T07:15:57.955Z,26.80
2023-02-07T07:18:24.150Z,26.60
2023-02-07T07:20:54.787Z,26.40
2023-02-07T07:23:20.974Z,26.30
2023-02-07T07:25:47.023Z,26.30
2023-02-07T07:28:13.333Z,26.20
2023-02-07T07:30:39.458Z,26.10
2023-02-07T07:33:06.529Z,26.10
2023-02-07T07:35:33.152Z,26.40
2023-02-07T07:37:59.248Z,26.50
2023-02-07T07:40:25.349Z,26.60
2023-02-07T07:42:51.386Z,26.60
2023-02-07T07:45:17.569Z,26.30
2023-02-07T07:47:43.614Z,26.00
2023-02-07T07:50:09.796Z,25.80
2023-02-07T07:52:36.093Z,25.90
2023-02-07T07:55:02.238Z,25.80
2023-02-07T07:57:28.357Z,26.30
2023-02-07T07:59:55.187Z,26.00
2023-02-07T08:02:21.307Z,26.40
2023-02-07T08:04:47.395Z,26.10
2023-02-07T08:07:13.465Z,25.90
2023-02-07T08:09:39.505Z,26.10
2023-02-07T08:12:05.743Z,25.60
2023-02-07T08:14:31.895Z,25.50
2023-02-07T08:16:57.939Z,25.60
2023-02-07T08:19:24.112Z,25.60
2023-02-07T08:21:50.235Z,25.80
2023-02-07T08:24:16.431Z,25.50
2023-02-07T08:26:42.595Z,25.40
2023-02-07T08:29:08.756Z,25.70
2023-02-07T08:31:34.913Z,25.60
2023-02-07T08:34:01.219Z,25.50
2023-02-07T08:36:27.353Z,25.60
2023-02-07T08:38:54.068Z,25.70
2023-02-07T08:41:20.131Z,25.60
2023-02-07T08:43:46.228Z,25.70
2023-02-07T08:46:12.372Z,25.70
2023-02-07T08:48:38.491Z,25.60
2023-02-07T08:51:06.376Z,25.80
2023-02-07T08:53:32.828Z,25.90
2023-02-07T08:55:59.082Z,26.10
2023-02-07T08:58:25.398Z,26.20
2023-02-07T09:00:51.537Z,26.40
2023-02-07T09:03:17.649Z,26.40
2023-02-07T09:05:43.710Z,26.40
2023-02-07T09:08:09.824Z,26.50
2023-02-07T09:10:35.941Z,26.40
2023-02-07T09:13:02.022Z,26.30
2023-02-07T09:15:28.113Z,26.30
2023-02-07T09:17:54.196Z,26.20
2023-02-07T09:20:20.639Z,26.20
2023-02-07T09:23:15.577Z,26.30
2023-02-07T09:25:42.781Z,26.20
2023-02-07T09:28:09.868Z,26.20
2023-02-07T09:30:39.323Z,26.20
2023-02-07T09:33:05.580Z,26.10
2023-02-07T09:35:36.458Z,26.10
2023-02-07T09:38:02.517Z,26.00
2023-02-07T09:40:33.708Z,26.00
2023-02-07T09:43:08.292Z,26.00
2023-02-07T09:45:40.264Z,26.10
2023-02-07T09:48:18.780Z,26.00
2023-02-07T09:50:52.656Z,25.90
2023-02-07T09:53:25.608Z,25.90
2023-02-07T09:55:57.186Z,25.90
2023-02-07T09:58:53.877Z,25.90
2023-02-07T10:01:25.591Z,25.90
2023-02-07T10:04:11.393Z,26.10
2023-02-07T10:06:43.308Z,26.00
2023-02-07T10:09:15.175Z,26.00
2023-02-07T10:11:51.424Z,26.00
2023-02-07T10:14:55.177Z,25.90
2023-02-07T10:17:55.868Z,25.90
2023-02-07T10:20:26.232Z,26.00
2023-02-07T10:23:06.512Z,26.00
2023-02-07T10:25:43.717Z,25.90
2023-02-07T10:28:15.722Z,26.00
2023-02-07T10:30:53.525Z,25.90
2023-02-07T10:33:23.466Z,26.00
2023-02-07T10:35:51.309Z,26.10
2023-02-07T10:39:03.315Z,25.90
2023-02-07T10:41:40.322Z,26.30
2023-02-07T10:44:11.358Z,26.00
2023-02-07T10:46:40.115Z,26.10
2023-02-07T10:49:11.741Z,26.10
2023-02-07T10:51:45.208Z,26.00
2023-02-07T10:54:15.896Z,26.00
2023-02-07T10:56:46.514Z,25.90
2023-02-07T10:59:39.742Z,26.00
2023-02-07T11:02:27.760Z,26.00
2023-02-07T11:04:55.359Z,26.00
2023-02-07T11:07:22.295Z,26.10
2023-02-07T11:09:48.993Z,26.10
2023-02-07T11:12:20.843Z,26.10
2023-02-07T11:15:25.522Z,26.80
2023-02-07T11:17:58.047Z,26.30
2023-02-07T11:20:27.222Z,26.10
2023-02-07T11:22:55.140Z,26.00
2023-02-07T11:25:37.877Z,26.00
2023-02-07T11:28:05.090Z,26.00
2023-02-07T11:30:35.125Z,26.00
2023-02-07T11:33:04.324Z,26.30
2023-02-07T11:35:30.861Z,26.40
2023-02-07T11:38:12.521Z,26.20
2023-02-07T11:40:41.326Z,26.00
2023-02-07T11:43:19.069Z,26.30
2023-02-07T11:46:00.139Z,26.30
2023-02-07T11:48:33.413Z,26.30
2023-02-07T11:51:02.711Z,26.50
2023-02-07T11:53:53.386Z,26.50
2023-02-07T11:56:31.752Z,26.40
2023-02-07T11:58:58.504Z,26.10
2023-02-07T12:01:29.207Z,26.40
2023-02-07T12:04:00.309Z,26.50
2023-02-07T12:06:36.360Z,26.60
2023-02-07T12:09:04.362Z,26.60
2023-02-07T12:11:36.575Z,26.60
2023-02-07T12:14:25.230Z,26.70
2023-02-07T12:16:55.602Z,26.90
2023-02-07T12:19:31.271Z,26.70
2023-02-07T12:22:14.831Z,26.90
2023-02-07T12:24:54.251Z,26.80
2023-02-07T12:27:25.540Z,26.70
2023-02-07T12:29:55.831Z,26.60
2023-02-07T12:32:44.749Z,26.50
2023-02-07T12:35:24.398Z,26.40
2023-02-07T12:38:11.393Z,26.30
2023-02-07T12:41:02.144Z,26.20
2023-02-07T12:43:37.962Z,26.10
2023-02-07T12:46:46.425Z,26.10
2023-02-07T12:49:27.772Z,26.30
2023-02-07T12:52:21.515Z,26.50
2023-02-07T12:55:15.254Z,26.70
2023-02-07T12:58:03.363Z,26.70
2023-02-07T13:00:42.625Z,27.10
2023-02-07T13:03:17.372Z,26.50
2023-02-07T13:06:07.744Z,26.30
2023-02-07T13:08:54.027Z,26.20
2023-02-07T13:11:23.123Z,26.10
2023-02-07T13:14:04.721Z,26.20
2023-02-07T13:16:51.290Z,26.10
2023-02-07T13:19:26.684Z,26.20
2023-02-07T13:21:59.397Z,26.10
2023-02-07T13:24:28.658Z,26.20
2023-02-07T13:27:00.108Z,26.10
2023-02-07T13:29:31.098Z,26.00
2023-02-07T13:32:04.803Z,26.00
2023-02-07T13:34:53.576Z,26.10
2023-02-07T13:37:23.839Z,26.10
2023-02-07T13:40:21.012Z,26.00
2023-02-07T13:43:02.779Z,25.80
2023-02-07T13:46:26.872Z,26.00
2023-02-07T13:49:19.232Z,26.20
2023-02-07T13:52:15.023Z,26.20
2023-02-07T13:54:51.265Z,26.20
2023-02-07T13:57:53.965Z,26.70
2023-02-07T14:00:24.401Z,26.80
2023-02-07T14:03:02.892Z,27.10
2023-02-07T14:05:40.575Z,26.90
2023-02-07T14:08:24.203Z,27.10
2023-02-07T14:10:57.106Z,27.10
2023-02-07T14:13:27.291Z,27.00
2023-02-07T14:16:25.218Z,26.90
2023-02-07T14:18:52.286Z,27.00
2023-02-07T14:21:18.307Z,26.90
2023-02-07T14:24:05.221Z,26.90
2023-02-07T14:26:37.160Z,27.10
2023-02-07T14:29:38.625Z,27.00
2023-02-07T14:32:16.760Z,27.00
2023-02-07T14:35:15.749Z,27.00
2023-02-07T14:37:53.272Z,27.10
2023-02-07T14:40:21.187Z,27.20
2023-02-07T14:42:58.403Z,26.80
2023-02-07T14:45:27.855Z,26.30
2023-02-07T14:47:54.158Z,26.30
2023-02-07T14:50:27.326Z,26.30
2023-02-07T14:52:54.870Z,26.10
2023-02-07T14:55:34.281Z,26.10
2023-02-07T14:58:04.611Z,26.10
2023-02-07T15:00:49.306Z,26.10
2023-02-07T15:03:19.664Z,26.10
2023-02-07T15:05:51.738Z,26.10
2023-02-07T15:08:24.721Z,26.20
2023-02-07T15:11:03.123Z,26.10
2023-02-07T15:13:30.446Z,26.00
2023-02-07T15:16:04.458Z,25.90
2023-02-07T15:18:35.337Z,25.80
2023-02-07T15:21:02.201Z,25.80
2023-02-07T15:23:30.154Z,25.70
2023-02-07T15:26:05.162Z,25.70
2023-02-07T15:28:31.682Z,25.70
2023-02-07T15:31:25.956Z,25.70
2023-02-07T15:33:59.412Z,25.90
2023-02-07T15:36:35.691Z,25.60
2023-02-07T15:39:07.364Z,25.60
2023-02-07T15:41:34.001Z,25.50
2023-02-07T15:44:03.352Z,25.50
2023-02-07T15:46:48.888Z,25.50
2023-02-07T15:49:39.632Z,25.50
2023-02-07T15:52:27.858Z,26.20
2023-02-07T15:54:54.954Z,25.50
2023-02-07T15:57:33.040Z,25.40
2023-02-07T16:00:06.613Z,25.50
2023-02-07T16:02:36.199Z,25.50
2023-02-07T16:05:23.363Z,25.40
2023-02-07T16:07:50.592Z,25.40
2023-02-07T16:10:22.617Z,25.40
2023-02-07T16:12:54.672Z,25.60
2023-02-07T16:15:39.017Z,25.50
2023-02-07T16:18:05.873Z,25.50
2023-02-07T16:20:35.373Z,25.50
2023-02-07T16:23:03.818Z,25.30
2023-02-07T16:25:32.879Z,25.20
2023-02-07T16:28:00.143Z,25.20
2023-02-07T16:30:36.083Z,25.30
2023-02-07T16:33:06.505Z,25.50
2023-02-07T16:35:32.842Z,25.40
2023-02-07T16:37:58.985Z,25.40
2023-02-07T16:40:26.050Z,25.40
2023-02-07T16:42:54.655Z,25.30
2023-02-07T16:45:23.957Z,25.20
2023-02-07T16:47:50.342Z,25.30
2023-02-07T16:50:22.471Z,25.40
2023-02-07T16:52:50.478Z,25.30
2023-02-07T16:55:18.521Z,25.30
2023-02-07T16:57:45.996Z,25.20
2023-02-07T17:00:15.951Z,25.20
2023-02-07T17:02:42.655Z,25.10
2023-02-07T17:05:08.901Z,25.10
2023-02-07T17:07:35.198Z,25.20
2023-02-07T17:10:01.263Z,25.10
2023-02-07T17:12:27.300Z,25.10
2023-02-07T17:14:53.391Z,25.20
2023-02-07T17:17:19.489Z,25.10
2023-02-07T17:19:46.867Z,25.10
2023-02-07T17:22:14.014Z,25.00
2023-02-07T17:24:40.064Z,25.10
2023-02-07T17:27:06.122Z,25.10
2023-02-07T17:29:32.219Z,25.00
2023-02-07T17:31:58.332Z,25.10
2023-02-07T17:34:24.860Z,25.10
2023-02-07T17:36:51.034Z,25.00
2023-02-07T17:39:18.951Z,25.00
2023-02-07T17:41:45.080Z,24.90
2023-02-07T17:44:11.146Z,25.00
2023-02-07T17:46:37.599Z,25.00
2023-02-07T17:49:04.004Z,24.90
2023-02-07T17:51:30.075Z,25.00
2023-02-07T17:53:56.792Z,25.40
2023-02-07T17:56:28.429Z,24.90
2023-02-07T17:58:56.345Z,24.80
2023-02-07T18:01:23.295Z,24.90
2023-02-07T18:03:51.463Z,24.80
2023-02-07T18:06:20.475Z,24.90
2023-02-07T18:08:47.000Z,25.00
2023-02-07T18:11:13.673Z,25.10
2023-02-07T18:13:41.355Z,25.20
2023-02-07T18:16:08.305Z,25.20
2023-02-07T18:18:34.816Z,25.20
2023-02-07T18:21:02.720Z,25.20
2023-02-07T18:23:28.836Z,25.30
2023-02-07T18:25:54.884Z,25.30
2023-02-07T18:28:21.018Z,25.40
2023-02-07T18:30:47.328Z,25.80
2023-02-07T18:33:15.524Z,25.40
2023-02-07T18:35:41.847Z,25.40
2023-02-07T18:38:08.206Z,25.40
2023-02-07T18:40:34.294Z,25.40
2023-02-07T18:43:00.376Z,25.40
2023-02-07T18:45:26.715Z,25.40
2023-02-07T18:47:53.036Z,25.50
2023-02-07T18:50:19.148Z,25.50
2023-02-07T18:52:46.890Z,25.50
2023-02-07T18:55:13.049Z,25.50
2023-02-07T18:57:39.110Z,25.50
2023-02-07T19:00:07.271Z,25.50
2023-02-07T19:02:33.417Z,25.50
2023-02-07T19:04:59.876Z,25.50
2023-02-07T19:07:26.110Z,25.50
2023-02-07T19:09:52.171Z,25.50
2023-02-07T19:12:18.255Z,25.60
2023-02-07T19:14:44.327Z,25.60
2023-02-07T19:17:10.515Z,25.60
2023-02-07T19:19:36.640Z,25.60
2023-02-07T19:22:02.962Z,26.10
2023-02-07T19:24:29.080Z,25.60
2023-02-07T19:26:57.682Z,25.60
2023-02-07T19:29:29.437Z,25.60
2023-02-07T19:31:57.711Z,25.60
2023-02-07T19:34:24.401Z,25.60
2023-02-07T19:36:50.678Z,25.70
2023-02-07T19:39:17.773Z,25.70
2023-02-07T19:41:44.031Z,25.70
2023-02-07T19:44:10.512Z,25.80
2023-02-07T19:46:36.796Z,25.70
2023-02-07T19:49:03.835Z,25.70
2023-02-07T19:51:31.344Z,25.70
2023-02-07T19:53:58.211Z,25.70
2023-02-07T19:56:27.505Z,26.30
2023-02-07T19:58:54.725Z,25.80
2023-02-07T20:01:24.399Z,25.80
2023-02-07T20:03:51.946Z,25.80
2023-02-07T20:06:32.733Z,25.80
2023-02-07T20:09:00.405Z,25.80
2023-02-07T20:11:27.193Z,25.80
2023-02-07T20:14:01.928Z,25.80
2023-02-07T20:16:30.858Z,25.80
2023-02-07T20:18:57.124Z,25.90
2023-02-07T20:21:30.931Z,25.90
2023-02-07T20:23:57.744Z,25.90
2023-02-07T20:26:38.608Z,25.90
2023-02-07T20:29:12.173Z,25.90
2023-02-07T20:31:38.813Z,25.90
2023-02-07T20:34:05.842Z,25.90
2023-02-07T20:36:32.956Z,25.90
2023-02-07T20:38:59.885Z,25.90
2023-02-07T20:41:32.052Z,25.90
2023-02-07T20:44:07.031Z,25.90
2023-02-07T20:46:35.332Z,25.90
2023-02-07T20:49:04.923Z,25.90
2023-02-07T20:51:31.684Z,25.90
2023-02-07T20:54:00.345Z,26.00
2023-02-07T20:56:27.319Z,26.00
2023-02-07T20:58:54.091Z,25.90
2023-02-07T21:01:22.627Z,26.00
2023-02-07T21:03:53.639Z,26.00
2023-02-07T21:06:22.313Z,26.00
2023-02-07T21:08:50.187Z,26.00
2023-02-07T21:11:17.039Z,26.00
2023-02-07T21:13:44.719Z,26.00
2023-02-07T21:16:12.060Z,26.00
2023-02-07T21:18:38.144Z,26.00
2023-02-07T21:21:06.324Z,26.00
2023-02-07T21:23:32.633Z,26.00
2023-02-07T21:26:06.279Z,26.00
2023-02-07T21:28:32.775Z,26.00
2023-02-07T21:31:07.635Z,26.00
2023-02-07T21:33:34.000Z,26.10
2023-02-07T21:36:08.566Z,26.10
2023-02-07T21:38:36.142Z,26.10
2023-02-07T21:41:04.601Z,26.10
2023-02-07T21:43:30.807Z,26.10
2023-02-07T21:46:10.245Z,26.10
2023-02-07T21:48:38.300Z,26.10
2023-02-07T21:51:06.887Z,26.10
2023-02-07T21:53:33.927Z,26.10
2023-02-07T21:56:09.671Z,26.10
2023-02-07T21:58:35.754Z,26.10
2023-02-07T22:01:15.481Z,26.20
2023-02-07T22:03:43.500Z,26.20
2023-02-07T22:06:10.313Z,26.20
2023-02-07T22:08:37.342Z,26.20
2023-02-07T22:11:05.494Z,26.20
2023-02-07T22:13:32.587Z,26.20
2023-02-07T22:15:58.703Z,26.20
2023-02-07T22:18:24.945Z,26.20
2023-02-07T22:20:51.159Z,26.20
2023-02-07T22:23:17.826Z,26.20
2023-02-07T22:25:44.037Z,26.20
2023-02-07T22:28:11.471Z,26.30
2023-02-07T22:30:40.824Z,26.20
2023-02-07T22:33:09.303Z,26.20
2023-02-07T22:35:36.593Z,26.20
2023-02-07T22:38:03.371Z,26.20
2023-02-07T22:40:30.020Z,26.20
2023-02-07T22:42:56.106Z,26.30
2023-02-07T22:45:22.157Z,26.30
2023-02-07T22:47:48.200Z,26.30
2023-02-07T22:50:14.276Z,26.30
2023-02-07T22:52:40.405Z,26.30
2023-02-07T22:55:06.685Z,26.30
2023-02-07T22:57:32.730Z,26.30
2023-02-07T23:00:00.155Z,26.30
2023-02-07T23:02:32.122Z,26.30
2023-02-07T23:04:58.220Z,26.30
2023-02-07T23:07:26.127Z,26.30
2023-02-07T23:09:53.698Z,26.30
2023-02-07T23:12:20.137Z,26.30
2023-02-07T23:14:46.233Z,26.30
2023-02-07T23:17:12.752Z,26.90
2023-02-07T23:19:39.262Z,26.40
2023-02-07T23:22:06.110Z,26.30
2023-02-07T23:24:32.952Z,26.30
2023-02-07T23:26:59.581Z,26.30
2023-02-07T23:29:26.183Z,26.30
2023-02-07T23:31:52.401Z,26.40
2023-02-07T23:34:18.461Z,26.40
2023-02-07T23:36:44.499Z,26.40
2023-02-07T23:39:11.044Z,26.40
2023-02-07T23:41:37.893Z,26.40
2023-02-07T23:44:04.560Z,26.40
2023-02-07T23:46:34.489Z,26.40
2023-02-07T23:49:00.622Z,26.40
2023-02-07T23:51:27.340Z,26.40
2023-02-07T23:53:53.397Z,26.40
2023-02-07T23:56:21.570Z,26.40
2023-02-07T23:58:48.811Z,26.40
